Time;durP1;ratioP1;P1;durP2;ratioP2;P2;SDS_P1;SDS_P2;PMS_P1;PMS_P2;Temp;Humidity;BMP_temperature;BMP_pressure;BME280_temperature;BME280_humidity;BME280_pressure;Samples;Min_cycle;Max_cycle;Signal;HPM_P1;HPM_P2
2022/04/02 00:02:58;;;;;;;43.83;7.75;;;;;;;10.64;58.47;98422.41;1724150;83;21214;-76
2022/04/02 00:06:03;;;;;;;47.50;8.70;;;;;;;10.59;58.33;98408.56;1709289;83;21194;-82
2022/04/02 00:09:10;;;;;;;43.55;9.83;;;;;;;10.54;58.42;98412.47;1723255;83;21174;-83
2022/04/02 00:12:17;;;;;;;44.77;7.85;;;;;;;10.47;58.21;98410.63;1724582;83;21182;-76
2022/04/02 00:15:22;;;;;;;30.88;6.33;;;;;;;10.51;57.84;98406.09;1723120;83;21175;-84
2022/04/02 00:18:31;;;;;;;55.38;8.20;;;;;;;10.53;57.53;98413.53;1724590;83;21190;-76
2022/04/02 00:21:38;;;;;;;53.55;8.45;;;;;;;10.53;57.89;98411.63;1724651;83;21221;-76
2022/04/02 00:24:43;;;;;;;42.43;7.83;;;;;;;10.48;58.68;98402.73;1724686;83;21251;-82
2022/04/02 00:27:48;;;;;;;46.23;8.73;;;;;;;10.43;59.30;98398.46;1724762;83;21177;-83
2022/04/02 00:30:55;;;;;;;40.88;7.95;;;;;;;10.36;59.75;98400.42;1724755;83;21747;-83
2022/04/02 00:34:01;;;;;;;43.35;8.10;;;;;;;10.28;60.62;98388.39;1723825;83;21205;-83
2022/04/02 00:37:07;;;;;;;62.40;9.80;;;;;;;10.18;61.29;98388.02;1721351;82;21190;-77
2022/04/02 00:40:14;;;;;;;43.98;8.50;;;;;;;10.08;62.14;98384.93;1722417;83;21166;-76
2022/04/02 00:43:42;;;;;;;45.90;8.88;;;;;;;9.99;62.96;98376.98;1722324;83;21208;-84
2022/04/02 00:46:48;;;;;;;60.48;9.65;;;;;;;9.90;63.58;98376.94;1722306;83;21229;-76
2022/04/02 00:49:55;;;;;;;45.50;8.38;;;;;;;9.80;64.64;98378.47;1722303;83;21197;-77
2022/04/02 00:53:01;;;;;;;54.15;8.58;;;;;;;9.71;65.47;98380.61;1722295;83;21197;-84
2022/04/02 00:56:07;;;;;;;58.10;8.23;;;;;;;9.62;66.00;98373.73;1720943;83;21177;-83
2022/04/02 00:59:13;;;;;;;50.35;9.18;;;;;;;9.52;66.40;98361.91;1722360;83;21755;-83
2022/04/02 01:02:19;;;;;;;57.67;7.85;;;;;;;9.45;66.82;98366.55;1722411;83;21209;-84
2022/04/02 01:05:26;;;;;;;44.08;9.10;;;;;;;9.42;67.12;98367.00;1722392;83;21174;-77
2022/04/02 01:08:35;;;;;;;46.20;8.63;;;;;;;9.40;67.46;98358.17;1722289;83;22204;-83
2022/04/02 01:11:50;;;;;;;41.42;8.65;;;;;;;9.39;67.66;98362.80;1722372;83;21186;-83
2022/04/02 01:14:58;;;;;;;61.33;10.03;;;;;;;9.38;67.94;98357.56;1722261;83;21197;-76
2022/04/02 01:18:06;;;;;;;46.00;9.25;;;;;;;9.34;67.84;98348.97;1722264;83;21762;-77
2022/04/02 01:21:13;;;;;;;47.65;8.30;;;;;;;9.31;67.90;98347.19;1703495;83;21166;-83
2022/04/02 01:24:20;;;;;;;45.52;7.45;;;;;;;9.28;68.17;98343.55;1722410;83;21162;-83
2022/04/02 01:27:27;;;;;;;49.80;8.63;;;;;;;9.28;69.01;98332.11;1722290;83;21212;-82
2022/04/02 01:30:32;;;;;;;43.17;8.35;;;;;;;9.31;69.39;98341.20;1722480;83;21579;-76
2022/04/02 01:33:37;;;;;;;38.92;7.72;;;;;;;9.33;69.41;98336.38;1722102;83;21210;-83
2022/04/02 01:36:44;;;;;;;37.28;7.35;;;;;;;9.38;69.23;98335.20;1722144;83;21201;-84
2022/04/02 01:39:52;;;;;;;49.48;8.80;;;;;;;9.47;69.32;98332.55;1708639;84;21243;-84
2022/04/02 01:43:01;;;;;;;45.08;8.15;;;;;;;9.50;69.42;98333.15;1707535;84;21774;-83
2022/04/02 01:46:04;;;;;;;42.17;7.87;;;;;;;9.45;69.43;98325.08;1708449;84;21755;-76
2022/04/02 01:49:12;;;;;;;57.13;9.08;;;;;;;9.39;69.83;98316.41;1708495;84;21759;-83
2022/04/02 01:52:17;;;;;;;39.42;8.83;;;;;;;9.33;70.10;98311.00;1708475;84;21225;-76
2022/04/02 01:55:23;;;;;;;64.27;7.87;;;;;;;9.28;70.51;98308.92;1708439;84;21205;-83
2022/04/02 01:58:35;;;;;;;45.65;7.90;;;;;;;9.24;70.83;98306.31;1707705;84;21250;-77
2022/04/02 02:01:42;;;;;;;28.90;6.80;;;;;;;9.18;71.18;98304.45;1708507;84;21806;-81
2022/04/02 02:04:48;;;;;;;46.50;7.53;;;;;;;9.11;71.51;98304.46;1708162;84;21205;-83
2022/04/02 02:07:58;;;;;;;36.25;7.10;;;;;;;9.07;71.85;98296.92;1708563;84;21805;-83
2022/04/02 02:11:11;;;;;;;48.48;8.85;;;;;;;9.00;72.20;98294.77;1651252;84;21202;-83
2022/04/02 02:14:31;;;;;;;42.67;7.90;;;;;;;8.95;72.47;98286.70;1708613;84;21198;-82
2022/04/02 02:17:40;;;;;;;47.78;7.85;;;;;;;8.93;72.51;98266.97;1707093;84;21214;-77
2022/04/02 02:20:47;;;;;;;44.35;8.73;;;;;;;8.92;72.59;98270.76;1708456;84;21198;-83
2022/04/02 02:23:54;;;;;;;46.83;7.92;;;;;;;8.95;72.59;98267.61;1708450;84;21178;-76
2022/04/02 02:26:58;;;;;;;47.98;8.98;;;;;;;8.98;72.63;98262.23;1708453;84;21225;-83
2022/04/02 02:30:04;;;;;;;64.03;8.33;;;;;;;9.00;72.73;98262.05;1708489;84;21214;-83
2022/04/02 02:36:33;;;;;;;53.78;8.38;;;;;;;9.00;72.73;98260.15;1583806;90;21253;-83
2022/04/02 02:39:38;;;;;;;55.25;8.55;;;;;;;8.96;72.84;98255.64;1748418;80;21206;-76
2022/04/02 02:42:47;;;;;;;50.50;10.28;;;;;;;8.90;73.04;98264.70;1706193;84;21206;-83
2022/04/02 02:45:54;;;;;;;39.40;6.97;;;;;;;8.86;73.13;98267.53;1752163;82;21194;-83
2022/04/02 02:48:59;;;;;;;40.43;7.15;;;;;;;8.87;73.39;98257.47;1752161;82;21138;-76
2022/04/02 02:52:06;;;;;;;47.10;8.38;;;;;;;8.90;73.33;98251.06;1705995;84;21770;-76
2022/04/02 02:55:13;;;;;;;52.50;10.23;;;;;;;8.94;73.08;98253.67;1750524;82;21193;-83
2022/04/02 02:58:21;;;;;;;48.23;7.87;;;;;;;8.99;73.02;98261.20;1752263;82;21751;-83
2022/04/02 03:01:26;;;;;;;51.95;9.40;;;;;;;8.96;72.81;98266.55;1752410;82;21150;-83
2022/04/02 03:04:33;;;;;;;57.20;9.78;;;;;;;8.89;73.03;98270.34;1706390;84;22192;-83
2022/04/02 03:07:51;;;;;;;47.62;8.53;;;;;;;8.81;73.36;98276.89;1752232;82;21265;-77
2022/04/02 03:11:00;;;;;;;41.88;7.35;;;;;;;8.72;73.65;98271.89;1752372;82;21150;-83
2022/04/02 03:14:06;;;;;;;65.97;8.78;;;;;;;8.63;73.91;98271.27;1750812;82;21158;-77
2022/04/02 03:17:12;;;;;;;45.88;8.50;;;;;;;8.54;74.34;98276.64;1752204;82;21193;-83
2022/04/02 03:20:19;;;;;;;45.38;9.78;;;;;;;8.47;74.52;98270.34;1706343;84;21201;-77
2022/04/02 03:23:27;;;;;;;44.58;9.15;;;;;;;8.37;74.68;98253.91;1706375;84;21202;-79
2022/04/02 03:26:34;;;;;;;48.85;8.10;;;;;;;8.28;74.92;98255.18;1752273;82;21198;-83
2022/04/02 03:29:42;;;;;;;46.15;7.78;;;;;;;8.23;75.24;98258.20;1706401;84;21162;-78
2022/04/02 03:32:47;;;;;;;48.70;8.25;;;;;;;8.22;75.35;98254.64;1706274;84;21194;-76
2022/04/02 03:35:55;;;;;;;43.78;7.10;;;;;;;8.25;75.56;98254.76;1752185;82;21182;-83
2022/04/02 03:39:01;;;;;;;43.68;8.28;;;;;;;8.32;75.45;98267.30;1752237;82;21435;-84
2022/04/02 03:42:08;;;;;;;50.85;10.60;;;;;;;8.41;75.12;98264.70;1752220;82;21174;-84
2022/04/02 03:45:16;;;;;;;42.20;8.08;;;;;;;8.54;74.60;98261.65;1752246;82;21147;-82
2022/04/02 03:48:21;;;;;;;47.80;8.40;;;;;;;8.70;73.90;98240.73;1752313;82;21883;-83
2022/04/02 03:51:26;;;;;;;51.08;7.62;;;;;;;8.87;73.22;98237.02;1706130;84;21207;-83
2022/04/02 03:54:35;;;;;;;52.15;7.50;;;;;;;9.04;72.56;98240.11;1752257;82;21178;-82
2022/04/02 03:57:44;;;;;;;48.45;9.33;;;;;;;9.16;71.94;98227.44;1750764;82;21241;-77
2022/04/02 04:00:51;;;;;;;56.18;9.48;;;;;;;9.28;71.42;98228.44;1706309;84;21193;-81
2022/04/02 04:03:58;;;;;;;45.65;6.97;;;;;;;9.38;70.91;98234.25;1706349;84;21662;-78
2022/04/02 04:07:04;;;;;;;46.75;7.25;;;;;;;9.46;70.59;98236.73;1751722;82;21154;-77
2022/04/02 04:10:09;;;;;;;38.42;7.78;;;;;;;9.52;70.44;98238.27;1752228;82;21740;-83
2022/04/02 04:13:17;;;;;;;60.52;8.63;;;;;;;9.57;70.23;98224.80;1706225;84;21205;-77
2022/04/02 04:16:24;;;;;;;45.73;7.58;;;;;;;9.61;70.12;98225.50;1752243;82;21194;-83
2022/04/02 04:19:34;;;;;;;47.88;8.10;;;;;;;9.68;69.93;98225.44;1706334;84;21154;-83
2022/04/02 04:22:41;;;;;;;50.43;9.43;;;;;;;9.75;69.67;98216.69;1752289;82;21158;-77
2022/04/02 04:25:49;;;;;;;48.70;8.88;;;;;;;9.85;69.45;98244.33;1706370;84;21162;-76
2022/04/02 04:28:50;;;;;;;59.05;9.48;;;;;;;9.91;69.20;98240.70;1706265;84;21206;-78
2022/04/02 04:31:57;;;;;;;41.90;7.70;;;;;;;9.96;69.03;98236.77;1706209;84;21213;-76
2022/04/02 04:35:02;;;;;;;46.65;7.28;;;;;;;9.98;68.90;98243.39;1706298;84;21146;-83
2022/04/02 04:38:07;;;;;;;40.70;6.87;;;;;;;;;;1705907;84;21194;-77
2022/04/02 04:41:13;;;;;;;48.87;8.38;;;;;;;10.01;69.27;98230.64;1720813;82;21197;-83
2022/04/02 04:44:19;;;;;;;44.48;8.55;;;;;;;10.08;69.63;98231.96;1712385;84;21213;-78
2022/04/02 04:47:26;;;;;;;49.45;14.15;;;;;;;10.21;69.92;98225.85;1738994;82;21201;-83
2022/04/02 04:50:32;;;;;;;50.08;10.72;;;;;;;10.37;70.03;98212.16;1739518;82;21715;-76
2022/04/02 04:53:37;;;;;;;60.80;10.72;;;;;;;10.56;69.89;98221.75;1739359;82;21189;-84
2022/04/02 04:56:43;;;;;;;41.98;8.35;;;;;;;10.78;69.84;98217.50;1739307;82;21216;-77
2022/04/02 04:59:49;;;;;;;54.08;10.68;;;;;;;10.98;69.48;98219.45;1739637;82;21157;-83
2022/04/02 05:02:56;;;;;;;44.88;9.78;;;;;;;11.17;69.21;98231.74;1739296;82;21232;-83
2022/04/02 05:06:05;;;;;;;62.43;9.85;;;;;;;11.37;68.77;98235.58;1709124;82;21154;-76
2022/04/02 05:09:14;;;;;;;50.20;9.65;;;;;;;11.54;68.38;98241.25;1698366;84;21202;-83
2022/04/02 05:12:24;;;;;;;41.48;8.98;;;;;;;11.70;68.06;98234.55;1717511;82;21198;-83
2022/04/02 05:15:32;;;;;;;49.18;10.10;;;;;;;11.91;67.81;98246.09;1682350;85;21189;-76
2022/04/02 05:18:39;;;;;;;72.08;10.58;;;;;;;12.14;67.35;98239.78;1709653;84;21232;-82
2022/04/02 05:21:46;;;;;;;66.57;15.88;;;;;;;12.38;66.81;98236.55;1692881;81;21341;-77
2022/04/02 05:24:54;;;;;;;48.15;10.08;;;;;;;12.62;66.24;98236.84;1736899;80;21150;-83
2022/04/02 05:27:59;;;;;;;55.70;9.73;;;;;;;12.82;65.57;98230.95;1731335;83;21181;-77
2022/04/02 05:31:06;;;;;;;74.35;10.88;;;;;;;13.00;65.25;98226.69;1725598;83;21847;-83
2022/04/02 05:34:13;;;;;;;49.67;10.10;;;;;;;13.19;64.60;98220.48;1725218;83;21150;-77
2022/04/02 05:37:18;;;;;;;62.62;10.58;;;;;;;13.38;63.87;98220.34;1725079;83;21759;-76
2022/04/02 05:40:25;;;;;;;51.30;9.78;;;;;;;13.49;63.37;98219.44;1725176;83;21174;-77
2022/04/02 05:43:30;;;;;;;64.22;11.33;;;;;;;13.55;63.14;98219.30;1722566;82;21727;-77
2022/04/02 05:46:35;;;;;;;51.30;10.50;;;;;;;13.61;63.23;98223.52;1770813;81;21185;-83
2022/04/02 05:49:41;;;;;;;42.48;9.08;;;;;;;13.69;63.04;98239.06;1774396;79;21194;-77
2022/04/02 05:52:47;;;;;;;69.10;12.78;;;;;;;13.81;63.04;98233.49;1730562;82;21814;-83
2022/04/02 05:55:55;;;;;;;55.30;10.23;;;;;;;14.00;62.50;98241.80;1754774;82;22153;-79
2022/04/02 05:59:00;;;;;;;49.03;9.90;;;;;;;14.19;61.77;98237.44;1754749;82;21233;-83
2022/04/02 06:02:04;;;;;;;57.67;10.23;;;;;;;14.34;61.31;98226.67;1754800;82;21202;-77
2022/04/02 06:05:09;;;;;;;45.15;7.50;;;;;;;14.47;60.94;98234.59;1754802;82;22096;-83
2022/04/02 06:08:16;;;;;;;39.45;8.83;;;;;;;14.62;61.15;98234.55;1754727;82;21178;-77
2022/04/02 06:11:21;;;;;;;45.35;9.00;;;;;;;14.79;60.67;98227.11;1754620;82;21189;-77
2022/04/02 06:14:27;;;;;;;42.60;9.03;;;;;;;14.92;60.54;98228.12;1751281;81;21189;-84
2022/04/02 06:17:34;;;;;;;43.95;7.78;;;;;;;15.06;60.19;98217.56;1776937;80;21232;-84
2022/04/02 06:20:40;;;;;;;47.25;8.48;;;;;;;15.19;60.08;98219.08;1774054;80;21777;-84
2022/04/02 06:23:45;;;;;;;42.78;8.08;;;;;;;15.30;59.78;98227.22;1775674;81;21236;-77
2022/04/02 06:26:52;;;;;;;57.43;9.18;;;;;;;15.40;59.86;98216.86;1724371;83;21213;-77
2022/04/02 06:29:59;;;;;;;43.80;7.10;;;;;;;15.50;59.76;98219.72;1736304;82;21727;-77
2022/04/02 06:33:05;;;;;;;43.85;8.75;;;;;;;15.63;59.54;98209.39;1754572;82;21221;-77
2022/04/02 06:36:16;;;;;;;43.80;7.90;;;;;;;15.74;58.33;98205.12;1695384;84;21157;-84
2022/04/02 06:39:34;;;;;;;44.42;8.25;;;;;;;15.79;58.11;98208.47;1713511;81;21196;-84
2022/04/02 06:42:41;;;;;;;50.45;8.40;;;;;;;15.86;58.16;98222.89;1749600;81;21480;-77
2022/04/02 06:45:50;;;;;;;41.65;7.78;;;;;;;15.96;58.88;98228.48;1738586;80;21195;-84
2022/04/02 06:48:55;;;;;;;45.20;7.67;;;;;;;16.08;58.38;98222.79;1744774;82;21153;-84
2022/04/02 06:51:57;;;;;;;44.95;7.97;;;;;;;16.20;57.80;98215.19;1759033;81;21212;-78
2022/04/02 06:55:02;;;;;;;44.23;7.95;;;;;;;16.30;57.59;98223.53;1770145;79;21749;-85
2022/04/02 06:58:10;;;;;;;32.90;6.78;;;;;;;16.42;57.86;98226.13;1769794;81;21204;-77
2022/04/02 07:01:16;;;;;;;40.10;7.65;;;;;;;16.54;57.16;98219.02;1766184;81;21188;-77
2022/04/02 07:04:24;;;;;;;34.18;6.37;;;;;;;16.63;57.21;98220.18;1757414;81;21165;-84
2022/04/02 07:07:29;;;;;;;29.52;5.97;;;;;;;16.75;56.90;98219.99;1771113;81;21220;-78
2022/04/02 07:10:42;;;;;;;29.77;6.67;;;;;;;16.86;56.00;98210.13;1773382;81;21204;-84
2022/04/02 07:13:53;;;;;;;43.55;5.75;;;;;;;16.97;55.88;98223.99;1771827;79;21158;-84
2022/04/02 07:17:03;;;;;;;21.20;4.67;;;;;;;17.08;54.88;98225.72;1759859;81;21232;-77
2022/04/02 07:20:11;;;;;;;31.45;5.22;;;;;;;17.17;55.48;98231.53;1770570;81;21213;-84
2022/04/02 07:23:19;;;;;;;23.05;4.70;;;;;;;17.25;54.39;98237.94;1771673;79;21161;-84
2022/04/02 07:26:47;;;;;;;27.52;5.50;;;;;;;17.36;54.38;98235.48;1741515;82;21797;-78
2022/04/02 07:29:53;;;;;;;33.08;5.33;;;;;;;17.48;53.50;98234.70;1768238;81;21141;-84
2022/04/02 07:33:01;;;;;;;21.35;5.40;;;;;;;17.53;52.85;98240.25;1777499;79;21161;-77
2022/04/02 07:36:14;;;;;;;29.12;5.62;;;;;;;17.57;51.99;98223.41;1771293;79;21153;-85
2022/04/02 07:39:24;;;;;;;27.32;5.25;;;;;;;17.63;52.81;98220.92;1770392;79;21260;-76
2022/04/02 07:42:43;;;;;;;22.15;4.92;;;;;;;17.78;52.48;98224.85;1762122;79;21173;-76
2022/04/02 07:46:12;;;;;;;31.52;5.20;;;;;;;17.90;52.13;98233.73;1777476;79;21156;-76
2022/04/02 07:49:25;;;;;;;21.02;4.17;;;;;;;18.01;51.87;98236.78;1774980;81;21739;-83
2022/04/02 07:52:32;;;;;;;31.27;5.17;;;;;;;18.12;50.73;98228.79;1732321;82;21240;-76
2022/04/02 07:55:39;;;;;;;20.95;4.37;;;;;;;18.24;50.00;98222.14;1754135;82;21245;-83
2022/04/02 07:58:52;;;;;;;18.35;4.28;;;;;;;18.35;50.18;98225.20;1753074;80;21166;-83
2022/04/02 08:02:04;;;;;;;27.62;4.53;;;;;;;18.42;49.06;98220.20;1735672;82;21210;-84
2022/04/02 08:05:14;;;;;;;15.88;3.60;;;;;;;18.46;49.02;98219.92;1734764;82;21173;-84
2022/04/02 08:08:25;;;;;;;27.02;4.92;;;;;;;18.48;48.55;98212.16;1732223;82;21177;-84
2022/04/02 08:11:38;;;;;;;20.62;3.90;;;;;;;18.51;48.65;98208.84;1737191;82;21727;-84
2022/04/02 08:14:47;;;;;;;25.13;4.10;;;;;;;18.63;47.85;98207.15;1732126;82;21157;-76
2022/04/02 08:18:20;;;;;;;15.83;3.70;;;;;;;18.74;47.83;98200.53;1776178;79;21622;-76
2022/04/02 08:21:23;;;;;;;16.40;4.00;;;;;;;18.83;47.17;98207.16;1748092;81;21276;-84
2022/04/02 08:24:28;;;;;;;14.50;4.00;;;;;;;18.86;47.77;98194.66;1733530;82;21192;-76
2022/04/02 08:28:10;;;;;;;20.17;3.70;;;;;;;18.90;46.61;98201.30;1716330;82;21212;-77
2022/04/02 08:31:27;;;;;;;20.92;4.40;;;;;;;18.87;47.47;98193.58;1729416;82;21761;-83
2022/04/02 08:35:11;;;;;;;28.32;4.92;;;;;;;19.00;47.89;98187.42;1708706;82;21188;-84
2022/04/02 08:38:41;;;;;;;22.05;5.05;;;;;;;19.13;47.21;98175.73;1722172;82;21224;-83
2022/04/02 08:42:28;;;;;;;22.50;4.17;;;;;;;19.12;46.67;98174.08;1748751;80;21212;-77
2022/04/02 08:45:38;;;;;;;17.45;4.42;;;;;;;19.05;46.33;98176.88;1720433;82;21213;-76
2022/04/02 08:48:47;;;;;;;15.43;4.78;;;;;;;18.98;46.84;98174.98;1711545;84;21177;-84
2022/04/02 08:51:48;;;;;;;24.63;4.47;;;;;;;19.02;46.67;98163.61;1714042;82;21237;-83
2022/04/02 08:54:55;;;;;;;27.20;4.65;;;;;;;19.13;47.46;98172.96;1743921;82;21152;-83
2022/04/02 08:58:15;;;;;;;21.73;4.35;;;;;;;19.30;46.94;98169.02;1694873;82;21196;-77
2022/04/02 09:01:20;;;;;;;26.15;5.42;;;;;;;19.43;46.37;98175.86;1682787;84;21197;-83
2022/04/02 09:04:45;;;;;;;18.10;3.95;;;;;;;19.51;46.41;98173.33;1666184;85;21200;-76
2022/04/02 09:08:44;;;;;;;24.92;4.42;;;;;;;19.59;46.00;98168.56;1682882;84;21220;-77
2022/04/02 09:12:26;;;;;;;28.65;4.87;;;;;;;19.63;45.46;98161.37;1612981;85;21253;-77
2022/04/02 09:15:46;;;;;;;16.15;4.45;;;;;;;19.66;45.79;98163.55;1663442;84;21224;-84
2022/04/02 09:19:32;;;;;;;34.18;5.12;;;;;;;19.68;45.97;98182.70;1689877;83;21753;-82
2022/04/02 09:22:57;;;;;;;25.70;4.80;;;;;;;19.82;45.28;98188.43;1714176;81;21159;-77
2022/04/02 09:26:28;;;;;;;20.95;3.75;;;;;;;19.97;45.31;98179.16;1686229;84;21174;-77
2022/04/02 09:30:09;;;;;;;21.45;4.70;;;;;;;19.99;44.98;98186.63;1664847;85;21233;-76
2022/04/02 09:34:10;;;;;;;22.25;4.80;;;;;;;19.98;45.13;98188.58;1684872;84;21204;-84
2022/04/02 09:37:32;;;;;;;24.92;4.87;;;;;;;19.96;44.87;98195.55;1672588;84;21220;-77
2022/04/02 09:40:55;;;;;;;31.68;5.62;;;;;;;19.82;45.07;98195.36;1676070;83;21197;-77
2022/04/02 09:44:31;;;;;;;31.37;4.15;;;;;;;19.63;45.35;98197.98;1688276;83;21141;-83
2022/04/02 09:48:14;;;;;;;20.88;4.10;;;;;;;19.45;45.75;98193.88;1672496;84;21229;-77
2022/04/02 09:51:20;;;;;;;25.57;4.72;;;;;;;19.21;45.73;98177.66;1681733;83;21172;-76
2022/04/02 09:54:33;;;;;;;22.32;4.50;;;;;;;18.94;46.29;98180.24;1682364;84;21738;-77
2022/04/02 09:58:07;;;;;;;24.67;4.72;;;;;;;18.75;47.09;98189.72;1664940;84;21197;-84
2022/04/02 10:01:38;;;;;;;28.23;4.97;;;;;;;18.64;47.48;98197.20;1683085;83;21153;-76
2022/04/02 10:04:52;;;;;;;;;;;;;;;18.64;48.28;98185.30;1674048;84;21702;-77
2022/04/02 10:08:10;;;;;;;28.70;5.17;;;;;;;18.65;48.57;98172.55;1697800;82;20210;-83
2022/04/02 10:11:19;;;;;;;18.05;4.85;;;;;;;18.77;49.41;98158.44;1738279;81;21193;-77
2022/04/02 10:14:30;;;;;;;25.32;5.40;;;;;;;19.00;48.56;98155.56;1738084;82;21157;-82
2022/04/02 10:17:38;;;;;;;30.12;6.78;;;;;;;19.21;48.82;98145.23;1737308;81;21217;-76
2022/04/02 10:20:44;;;;;;;25.45;6.47;;;;;;;19.40;48.31;98150.95;1739329;81;21716;-76
2022/04/02 10:23:52;;;;;;;34.73;6.37;;;;;;;19.52;48.63;98141.70;1748965;82;21519;-76
2022/04/02 10:27:02;;;;;;;25.55;4.95;;;;;;;19.63;47.93;98136.97;1748722;80;21208;-83
2022/04/02 10:30:15;;;;;;;34.20;5.37;;;;;;;19.63;47.27;98135.02;1747486;82;21172;-83
2022/04/02 10:33:29;;;;;;;26.50;6.33;;;;;;;19.53;47.17;98123.16;1748830;80;21812;-76
2022/04/02 10:36:33;;;;;;;28.85;6.60;;;;;;;19.42;47.38;98116.83;1736636;80;21177;-83
2022/04/02 10:39:39;;;;;;;31.90;6.55;;;;;;;19.44;47.00;98106.30;1736186;82;21184;-77
2022/04/02 10:42:52;;;;;;;36.30;6.90;;;;;;;19.50;46.56;98098.20;1722190;80;21765;-76
2022/04/02 10:45:58;;;;;;;25.43;5.90;;;;;;;19.50;46.53;98092.66;1730423;82;21785;-76
2022/04/02 10:49:07;;;;;;;25.12;5.95;;;;;;;19.53;46.18;98093.48;1712735;82;21200;-77
2022/04/02 10:52:13;;;;;;;34.78;5.67;;;;;;;19.68;46.21;98077.88;1697326;84;21780;-76
2022/04/02 10:55:19;;;;;;;35.88;6.85;;;;;;;19.81;45.27;98079.98;1685121;85;21176;-77
2022/04/02 10:58:28;;;;;;;31.07;6.55;;;;;;;19.86;44.85;98096.58;1708669;82;21298;-83
2022/04/02 11:01:34;;;;;;;39.75;6.05;;;;;;;19.93;45.01;98091.52;1748966;80;21180;-83
2022/04/02 11:04:57;;;;;;;27.90;5.67;;;;;;;19.95;42.92;98080.97;1716850;82;21757;-84
2022/04/02 11:08:06;;;;;;;35.83;6.30;;;;;;;19.84;44.17;98069.11;1704899;82;21173;-84
2022/04/02 11:11:29;;;;;;;42.35;5.42;;;;;;;19.90;43.56;98069.89;1699344;82;21180;-77
2022/04/02 11:14:27;;;;;;;41.35;6.33;;;;;;;19.97;43.19;98067.63;1685380;85;21749;-77
2022/04/02 11:17:39;;;;;;;25.80;5.62;;;;;;;19.97;43.56;98053.75;1701190;84;21213;-76
2022/04/02 11:20:44;;;;;;;28.05;5.10;;;;;;;20.00;43.12;98043.47;1712543;84;21763;-76
2022/04/02 11:24:02;;;;;;;30.40;5.53;;;;;;;20.01;42.56;98047.89;1699595;84;21181;-77
2022/04/02 11:27:07;;;;;;;44.98;7.67;;;;;;;20.03;42.61;98040.09;1720314;81;21180;-76
2022/04/02 11:30:18;;;;;;;38.70;6.47;;;;;;;20.07;42.30;98043.93;1735830;82;21205;-78
2022/04/02 11:33:25;;;;;;;18.23;4.75;;;;;;;20.08;42.29;98028.11;1672734;84;21189;-84
2022/04/02 11:36:52;;;;;;;32.95;5.75;;;;;;;20.04;42.37;98034.83;1672797;84;21249;-77
2022/04/02 11:39:59;;;;;;;26.70;5.42;;;;;;;19.97;41.73;98038.48;1676048;82;21185;-82
2022/04/02 11:43:10;;;;;;;30.97;5.95;;;;;;;19.78;42.42;98037.56;1658075;85;21240;-77
2022/04/02 11:46:23;;;;;;;21.25;4.83;;;;;;;19.70;42.79;98025.14;1672955;84;21181;-78
2022/04/02 11:49:40;;;;;;;23.02;5.45;;;;;;;19.73;42.77;98018.20;1672375;84;21770;-84
2022/04/02 11:53:00;;;;;;;28.15;6.87;;;;;;;19.78;42.93;98012.04;1682367;84;21209;-77
2022/04/02 11:56:05;;;;;;;26.62;5.87;;;;;;;19.87;41.82;98018.61;1686591;82;21807;-76
2022/04/02 11:59:15;;;;;;;32.50;5.83;;;;;;;19.87;41.25;98018.61;1673970;84;21138;-76
2022/04/02 12:02:20;;;;;;;28.38;6.05;;;;;;;19.90;41.97;98001.92;1685085;84;21686;-77
2022/04/02 12:05:27;;;;;;;28.73;5.30;;;;;;;19.90;42.10;98024.12;1702877;82;21659;-81
2022/04/02 12:08:37;;;;;;;22.02;5.05;;;;;;;19.85;41.72;98010.30;1697939;82;21153;-76
2022/04/02 12:11:42;;;;;;;27.90;4.60;;;;;;;19.86;42.14;98002.27;1685733;84;21219;-84
2022/04/02 12:14:48;;;;;;;24.25;4.72;;;;;;;19.88;41.58;98010.55;1690367;84;21722;-84
2022/04/02 12:17:58;;;;;;;31.25;5.25;;;;;;;19.82;41.68;98009.52;1694708;84;21235;-84
2022/04/02 12:21:11;;;;;;;21.07;5.87;;;;;;;19.77;41.43;98001.25;1686370;84;21166;-76
2022/04/02 12:24:11;;;;;;;32.45;5.78;;;;;;;19.69;41.28;97990.22;1734163;81;21184;-84
2022/04/02 12:27:18;;;;;;;41.30;6.75;;;;;;;19.63;42.21;97995.55;1699221;82;21769;-76
2022/04/02 12:30:29;;;;;;;34.27;6.17;;;;;;;19.61;42.41;97993.05;1708549;83;21777;-76
2022/04/02 12:33:34;;;;;;;21.97;5.30;;;;;;;19.60;42.42;97978.92;1704303;83;21195;-77
2022/04/02 12:36:43;;;;;;;33.42;6.08;;;;;;;19.60;43.25;97985.86;1689565;82;21244;-77
2022/04/02 12:39:49;;;;;;;33.73;6.17;;;;;;;19.68;42.85;97982.20;1684918;85;21817;-84
2022/04/02 12:42:57;;;;;;;26.27;5.65;;;;;;;19.76;42.88;97987.95;1746153;80;21196;-77
2022/04/02 12:46:02;;;;;;;38.28;7.25;;;;;;;19.75;42.83;97974.34;1749401;82;21710;-77
2022/04/02 12:49:09;;;;;;;33.28;5.87;;;;;;;19.66;42.99;97977.75;1749609;82;21713;-83
2022/04/02 12:52:24;;;;;;;23.77;5.80;;;;;;;19.55;42.71;97972.02;1746335;80;21196;-77
2022/04/02 12:55:35;;;;;;;28.90;7.08;;;;;;;19.39;43.36;97978.27;1749600;82;21773;-78
2022/04/02 12:58:46;;;;;;;35.98;6.33;;;;;;;19.19;43.41;97973.42;1747213;82;21164;-77
2022/04/02 13:01:54;;;;;;;28.77;6.60;;;;;;;18.92;44.37;97980.28;1685134;85;21227;-84
2022/04/02 13:05:04;;;;;;;32.40;6.78;;;;;;;18.72;45.49;97975.67;1690216;82;21187;-83
2022/04/02 13:08:10;;;;;;;26.82;7.08;;;;;;;18.56;45.83;97966.60;1710301;81;21185;-83
2022/04/02 13:11:16;;;;;;;39.10;7.53;;;;;;;18.48;46.26;97949.20;1716440;82;21494;-84
2022/04/02 13:14:28;;;;;;;36.25;7.05;;;;;;;18.45;46.20;97954.50;1719267;82;21192;-77
2022/04/02 13:17:34;;;;;;;38.98;7.12;;;;;;;18.38;46.45;97963.09;1733291;82;21232;-77
2022/04/02 13:20:44;;;;;;;44.03;7.97;;;;;;;18.29;47.16;97968.94;1726352;82;21212;-82
2022/04/02 13:24:25;;;;;;;40.65;6.90;;;;;;;18.25;48.46;97976.15;1748632;81;21204;-83
2022/04/02 13:27:40;;;;;;;24.77;4.65;;;;;;;18.11;51.70;97975.39;1749056;80;21232;-83
2022/04/02 13:30:48;;;;;;;23.40;3.80;;;;;;;17.60;48.98;97982.38;1748347;82;21204;-84
2022/04/02 13:34:09;;;;;;;10.23;3.10;;;;;;;17.10;49.45;97984.05;1748252;82;21149;-83
2022/04/02 13:37:29;;;;;;;18.62;3.87;;;;;;;16.61;50.05;98002.42;1743336;80;21208;-76
2022/04/02 13:40:22;;;;;;;22.93;6.70;;;;;;;16.21;52.32;97999.50;1678714;85;21288;-83
2022/04/02 13:43:45;;;;;;;19.77;3.95;;;;;;;15.96;57.04;97987.25;1677582;85;21241;-83
2022/04/02 13:46:59;;;;;;;18.00;3.52;;;;;;;15.87;59.46;97982.52;1679287;85;21228;-76
2022/04/02 13:50:08;;;;;;;13.93;3.12;;;;;;;16.02;59.66;97977.08;1677639;85;21260;-77
2022/04/02 13:53:17;;;;;;;15.10;3.12;;;;;;;16.29;58.81;97971.41;1679252;85;21216;-83
2022/04/02 13:56:25;;;;;;;12.00;3.17;;;;;;;16.47;56.35;97965.96;1697167;84;21172;-79
2022/04/02 13:59:40;;;;;;;16.70;3.33;;;;;;;16.53;55.43;97964.31;1711494;84;21165;-84
2022/04/02 14:02:46;;;;;;;13.70;3.10;;;;;;;16.51;55.12;97970.64;1698146;83;21764;-77
2022/04/02 14:05:51;;;;;;;11.15;3.35;;;;;;;16.52;54.23;97964.04;1685024;85;21203;-77
2022/04/02 14:08:58;;;;;;;8.93;2.00;;;;;;;16.58;53.25;97959.36;1685073;85;21211;-77
2022/04/02 14:12:09;;;;;;;5.75;1.30;;;;;;;16.72;50.75;97966.60;1685276;85;21187;-77
2022/04/02 14:15:20;;;;;;;12.98;1.35;;;;;;;16.92;47.38;97966.63;1684021;85;21187;-77
2022/04/02 14:18:34;;;;;;;18.05;1.82;;;;;;;17.07;45.59;97987.34;1685259;85;21191;-77
2022/04/02 14:21:40;;;;;;;18.42;1.70;;;;;;;17.20;43.74;97988.74;1685209;85;21211;-83
2022/04/02 14:25:49;;;;;;;7.55;1.40;;;;;;;17.22;43.63;98000.89;1683611;84;21809;-77
2022/04/02 14:29:25;;;;;;;12.78;2.50;;;;;;;17.15;43.34;98001.73;1601898;88;21256;-83
2022/04/02 14:32:54;;;;;;;9.95;3.60;;;;;;;16.94;48.46;98021.04;1640050;82;21820;-77
2022/04/02 14:36:38;;;;;;;20.40;4.00;;;;;;;16.58;54.16;98033.31;1732952;83;21180;-77
2022/04/02 14:39:59;;;;;;;23.15;4.80;;;;;;;16.13;56.77;98031.72;1732917;83;21869;-77
2022/04/02 14:43:09;;;;;;;25.45;4.87;;;;;;;15.67;60.51;98032.83;1733179;81;21206;-84
2022/04/02 14:46:57;;;;;;;22.60;4.47;;;;;;;15.30;63.15;98044.06;1733608;81;21191;-84
2022/04/02 14:50:36;;;;;;;17.75;4.33;;;;;;;15.07;65.02;98042.47;1733103;83;21179;-77
2022/04/02 14:54:09;;;;;;;11.43;3.75;;;;;;;14.82;65.01;98053.23;1733127;83;21230;-76
2022/04/02 14:58:04;;;;;;;10.20;3.27;;;;;;;14.64;65.35;98049.44;1732758;81;21246;-83